Hlavní strana
METAR-TAF:

METAR-TAF

Letiště :

Joensuu, Finsko

zeměpisná šířka: 62-40N, zeměpisná délka: 029-38E, výška: 119 m

Aktuální stav počasí

Zpráva byla vytvořena před 19 minutami, v 14:50 UTC
Západojihozápadní vítr 4 kt, proměnlivý mezi jihojihozápadním a západoseverozápadním
Teplota 12°C
Vlhkost vzduchu 67%
Tlak 997 hPa
Viditelnost 10 km a více
Skoro jasno ve výšce 2800 ft
Oblačno až skoro zataženo ve výšce 3300 ft

METAR: EFJO 261450Z 24004KT 210V290 9999 FEW028 BKN033 12/06 Q0997

Čas: 18:09 (15:09 UTC)

Předpověď počasí

Zpráva byla vytvořena před 33 minutami, v 14:36 UTC
Předpověď platná od 26 v 15 UTC do 26 v 23 UTC
Jihojihozápadní vítr 3 kt
Viditelnost 10 km a více
Oblačno až skoro zataženo ve výšce 2500 ft
Dočasný
od 26 v 18 UTC do 26 v 23 UTC
Viditelnost: 5000 m
Skoro jasno ve výšce 3000 ft, Cumulonimbus.
dešťové přeháňky

TAF: EFJO 261436Z 2615/2623 20003KT 9999 BKN025 TEMPO 2618/2623 5000 SHRA FEW030CB

Stav a předpovědi počasí z více než 4 000 letišť (zprávy METAR a TAF).

Červené a žluté tečky na mapě představují dostupné meteorologické stanice.

Když kurzor umístíte na tečku, zobrazí se název stanice.

Pak kliknutím zobrazíte stav a předpověď počasí.

Chcete-li změnit mapu, kliknutím na zelené tlačítko se znaménkem +mapu přiblížíte, kliknutím na zelené tlačítko se znaménkem – mapu oddálíte a kliknutím na zelené šipky přejdete na sousední mapy.


METAR-TAF: